Weather at St. André-Avellin Aerodrome

Public forecast

Using degrees Celsius for public forecast. Weather courtesy of forecast.io.

Closest aviation weather report (METAR) to St. André-Avellin Aerodrome

Closest report is Ottawa / Gatineau Airport, 24.7 nm (45.7 km) WSW. Retrieved 2020/10/26 14:39 UTC (0 seconds ago):

CYND 261439Z 06005KT 3SM -SN BR OVC006 01/M00 A3016 RMK SF8 SLP218

Closest aviation forecast (TAF) to St. André-Avellin Aerodrome

Closest forecast is Ottawa / Gatineau Airport, 24.7 nm (45.7 km) WSW. Retrieved 2020/10/26 13:00 UTC (2 hours ago):

TAF CYND 261240Z 2613/2701 08010KT 4SM -SN BR OVC010 TEMPO 2613/2615 1SM -SN -RA BR FM261500 08008KT 4SM -RA BR OVC005 TEMPO 2615/2621 6SM -RA BR OVC010 FM262100 31007KT 4SM -RA BR OVC005 RMK NXT FCST BY 261800Z